createdAt,value
2023-05-10T00:00:17.660Z,12.48
2023-05-10T00:02:44.943Z,12.53
2023-05-10T00:05:11.340Z,12.56
2023-05-10T00:07:38.111Z,12.52
2023-05-10T00:10:04.757Z,12.46
2023-05-10T00:12:31.152Z,12.46
2023-05-10T00:14:58.030Z,12.43
2023-05-10T00:17:24.554Z,12.41
2023-05-10T00:19:50.896Z,12.36
2023-05-10T00:22:17.608Z,12.47
2023-05-10T00:24:43.942Z,12.38
2023-05-10T00:27:10.891Z,12.37
2023-05-10T00:29:37.218Z,12.39
2023-05-10T00:32:03.779Z,12.33
2023-05-10T00:34:30.578Z,12.30
2023-05-10T00:36:57.142Z,12.27
2023-05-10T00:39:23.542Z,12.23
2023-05-10T00:41:50.535Z,12.22
2023-05-10T00:44:16.870Z,12.22
2023-05-10T00:46:43.213Z,12.21
2023-05-10T00:49:10.055Z,12.11
2023-05-10T00:51:37.350Z,12.09
2023-05-10T00:54:04.247Z,12.14
2023-05-10T00:56:31.220Z,12.09
2023-05-10T00:58:57.912Z,12.10
2023-05-10T01:01:24.350Z,12.03
2023-05-10T01:03:51.065Z,11.99
2023-05-10T01:06:17.812Z,12.00
2023-05-10T01:08:44.341Z,11.94
2023-05-10T01:11:10.781Z,11.98
2023-05-10T01:13:39.601Z,12.02
2023-05-10T01:16:07.386Z,12.00
2023-05-10T01:18:37.290Z,11.94
2023-05-10T01:21:26.988Z,12.04
2023-05-10T01:24:07.477Z,11.94
2023-05-10T01:26:56.030Z,11.93
2023-05-10T01:29:41.183Z,11.99
2023-05-10T01:32:29.563Z,11.98
2023-05-10T01:35:10.820Z,11.99
2023-05-10T01:38:01.868Z,11.94
2023-05-10T01:40:37.224Z,11.93
2023-05-10T01:43:09.522Z,12.02
2023-05-10T01:45:45.302Z,12.00
2023-05-10T01:48:12.991Z,12.06
2023-05-10T01:50:42.889Z,12.00
2023-05-10T01:53:11.648Z,12.01
2023-05-10T01:55:46.899Z,11.94
2023-05-10T01:58:32.486Z,11.98
2023-05-10T02:01:02.679Z,12.04
2023-05-10T02:03:30.597Z,12.07
2023-05-10T02:05:58.300Z,12.07
2023-05-10T02:08:26.214Z,12.16
2023-05-10T02:10:55.662Z,12.24
2023-05-10T02:13:23.652Z,12.31
2023-05-10T02:15:52.733Z,12.27
2023-05-10T02:18:19.536Z,12.16
2023-05-10T02:20:48.139Z,11.87
2023-05-10T02:23:18.017Z,11.94
2023-05-10T02:25:46.202Z,11.95
2023-05-10T02:28:14.786Z,11.91
2023-05-10T02:30:41.658Z,11.82
2023-05-10T02:33:08.785Z,11.72
2023-05-10T02:35:37.651Z,11.73
2023-05-10T02:38:05.697Z,11.73
2023-05-10T02:40:33.411Z,11.71
2023-05-10T02:43:00.816Z,11.65
2023-05-10T02:45:30.835Z,11.58
2023-05-10T02:47:57.730Z,11.58
2023-05-10T02:50:28.773Z,11.56
2023-05-10T02:53:06.079Z,11.43
2023-05-10T02:55:41.754Z,11.36
2023-05-10T02:58:08.200Z,11.37
2023-05-10T03:00:34.697Z,11.43
2023-05-10T03:03:01.695Z,11.48
2023-05-10T03:05:28.042Z,11.44
2023-05-10T03:07:55.466Z,11.49
2023-05-10T03:10:28.275Z,11.42
2023-05-10T03:13:23.192Z,11.32
2023-05-10T03:16:11.326Z,11.35
2023-05-10T03:18:55.215Z,11.27
2023-05-10T03:21:27.353Z,11.26
2023-05-10T03:24:07.763Z,11.24
2023-05-10T03:26:35.172Z,11.20
2023-05-10T03:29:03.009Z,11.19
2023-05-10T03:31:29.493Z,11.18
2023-05-10T03:33:56.653Z,11.23
2023-05-10T03:36:23.027Z,11.18
2023-05-10T03:38:49.345Z,11.10
2023-05-10T03:41:16.230Z,11.21
2023-05-10T03:43:42.656Z,11.23
2023-05-10T03:46:09.095Z,11.27
2023-05-10T03:48:36.095Z,11.32
2023-05-10T03:51:02.995Z,11.31
2023-05-10T03:53:29.412Z,11.34
2023-05-10T03:55:56.277Z,11.26
2023-05-10T03:58:22.814Z,11.33
2023-05-10T04:00:49.680Z,11.29
2023-05-10T04:03:16.169Z,11.27
2023-05-10T04:05:42.635Z,11.25
2023-05-10T04:08:09.587Z,11.24
2023-05-10T04:10:35.999Z,11.24
2023-05-10T04:13:02.368Z,11.30
2023-05-10T04:15:29.217Z,11.27
2023-05-10T04:17:55.622Z,11.29
2023-05-10T04:20:22.411Z,11.41
2023-05-10T04:22:48.770Z,11.16
2023-05-10T04:25:15.174Z,11.18
2023-05-10T04:27:42.202Z,11.31
2023-05-10T04:30:08.977Z,11.37
2023-05-10T04:32:35.395Z,11.38
2023-05-10T04:35:04.941Z,11.30
2023-05-10T04:37:31.357Z,11.34
2023-05-10T04:39:57.867Z,11.40
2023-05-10T04:42:24.485Z,11.28
2023-05-10T04:44:50.880Z,11.29
2023-05-10T04:47:17.283Z,11.40
2023-05-10T04:49:44.049Z,11.29
2023-05-10T04:52:10.839Z,11.13
2023-05-10T04:54:37.169Z,11.08
2023-05-10T04:57:03.661Z,11.01
2023-05-10T04:59:30.215Z,10.97
2023-05-10T05:01:56.610Z,10.93
2023-05-10T05:04:24.383Z,10.94
2023-05-10T05:06:53.790Z,10.82
2023-05-10T05:09:20.758Z,11.02
2023-05-10T05:11:47.084Z,11.14
2023-05-10T05:14:13.803Z,11.18
2023-05-10T05:16:40.627Z,11.29
2023-05-10T05:19:07.168Z,11.50
2023-05-10T05:21:33.906Z,11.59
2023-05-10T05:24:01.094Z,11.65
2023-05-10T05:26:27.538Z,11.33
2023-05-10T05:28:55.406Z,11.37
2023-05-10T05:31:22.436Z,11.40
2023-05-10T05:33:48.842Z,11.64
2023-05-10T05:36:15.206Z,11.61
2023-05-10T05:38:42.331Z,11.64
2023-05-10T05:41:08.692Z,11.77
2023-05-10T05:43:38.012Z,11.74
2023-05-10T05:46:05.473Z,11.72
2023-05-10T05:48:31.842Z,11.92
2023-05-10T05:50:58.734Z,12.00
2023-05-10T05:53:25.907Z,11.88
2023-05-10T05:55:56.730Z,11.90
2023-05-10T05:58:23.688Z,11.66
2023-05-10T06:00:51.059Z,11.75
2023-05-10T06:03:18.118Z,11.94
2023-05-10T06:05:45.048Z,11.81
2023-05-10T06:08:11.500Z,11.96
2023-05-10T06:10:38.946Z,12.02
2023-05-10T06:13:05.367Z,11.85
2023-05-10T06:15:32.133Z,12.16
2023-05-10T06:17:58.471Z,12.14
2023-05-10T06:20:24.887Z,12.14
2023-05-10T06:22:51.643Z,11.88
2023-05-10T06:25:19.192Z,12.11
2023-05-10T06:27:49.811Z,12.22
2023-05-10T06:30:18.379Z,11.89
2023-05-10T06:32:46.393Z,12.33
2023-05-10T06:35:12.791Z,12.49
2023-05-10T06:37:39.262Z,12.59
2023-05-10T06:40:07.773Z,12.36
2023-05-10T06:42:34.124Z,12.27
2023-05-10T06:45:00.548Z,12.34
2023-05-10T06:47:27.159Z,12.64
2023-05-10T06:49:53.481Z,12.36
2023-05-10T06:52:19.872Z,12.34
2023-05-10T06:54:46.552Z,12.42
2023-05-10T06:57:23.480Z,12.80
2023-05-10T06:59:58.972Z,12.71
2023-05-10T07:02:25.344Z,12.71
2023-05-10T07:04:53.214Z,12.49
2023-05-10T07:07:19.974Z,12.53
2023-05-10T07:09:46.680Z,12.62
2023-05-10T07:12:15.307Z,12.74
2023-05-10T07:14:42.181Z,13.49
2023-05-10T07:17:09.034Z,14.08
2023-05-10T07:19:35.433Z,14.82
2023-05-10T07:22:02.369Z,14.16
2023-05-10T07:24:28.712Z,15.14
2023-05-10T07:26:55.062Z,15.71
2023-05-10T07:29:21.915Z,14.64
2023-05-10T07:31:48.345Z,15.45
2023-05-10T07:34:14.747Z,15.70
2023-05-10T07:36:43.513Z,15.91
2023-05-10T07:39:09.965Z,15.97
2023-05-10T07:41:38.464Z,15.91
2023-05-10T07:44:06.070Z,15.51
2023-05-10T07:46:32.503Z,15.56
2023-05-10T07:48:58.835Z,15.25
2023-05-10T07:51:25.585Z,14.97
2023-05-10T07:53:52.009Z,15.29
2023-05-10T07:56:28.040Z,15.29
2023-05-10T07:58:55.280Z,15.45
2023-05-10T08:01:21.766Z,16.00
2023-05-10T08:03:48.512Z,15.67
2023-05-10T08:06:19.403Z,15.69
2023-05-10T08:08:50.586Z,15.67
2023-05-10T08:11:18.583Z,16.10
2023-05-10T08:13:48.832Z,15.53
2023-05-10T08:16:16.188Z,14.97
2023-05-10T08:18:42.559Z,15.99
2023-05-10T08:21:09.076Z,16.39
2023-05-10T08:23:35.885Z,16.80
2023-05-10T08:26:02.226Z,16.69
2023-05-10T08:28:28.588Z,16.90
2023-05-10T08:30:55.733Z,17.16
2023-05-10T08:33:22.196Z,17.60
2023-05-10T08:35:48.826Z,16.43
2023-05-10T08:38:15.584Z,16.57
2023-05-10T08:40:43.440Z,16.23
2023-05-10T08:43:15.988Z,15.92
2023-05-10T08:45:46.289Z,15.61
2023-05-10T08:48:12.823Z,15.91
2023-05-10T08:50:41.300Z,14.77
2023-05-10T08:53:11.872Z,14.65
2023-05-10T08:55:39.664Z,13.87
2023-05-10T08:58:07.828Z,14.48
2023-05-10T09:00:34.939Z,15.14
2023-05-10T09:03:02.627Z,15.00
2023-05-10T09:05:29.558Z,15.28
2023-05-10T09:07:56.159Z,15.45
2023-05-10T09:10:23.621Z,14.93
2023-05-10T09:12:51.225Z,16.10
2023-05-10T09:15:20.161Z,16.57
2023-05-10T09:17:48.222Z,17.01
2023-05-10T09:20:15.120Z,17.21
2023-05-10T09:22:41.682Z,16.62
2023-05-10T09:25:09.315Z,16.85
2023-05-10T09:27:37.157Z,17.38
2023-05-10T09:30:04.821Z,17.78
2023-05-10T09:32:42.354Z,17.11
2023-05-10T09:35:09.936Z,17.45
2023-05-10T09:37:36.369Z,17.84
2023-05-10T09:40:06.236Z,18.02
2023-05-10T09:42:32.574Z,18.40
2023-05-10T09:45:06.679Z,18.33
2023-05-10T09:47:34.848Z,17.82
2023-05-10T09:50:05.619Z,18.65
2023-05-10T09:52:47.690Z,17.55
2023-05-10T09:55:15.317Z,18.02
2023-05-10T09:57:41.909Z,18.30
2023-05-10T10:00:10.695Z,17.97
2023-05-10T10:02:38.159Z,17.84
2023-05-10T10:05:07.041Z,18.52
2023-05-10T10:07:34.430Z,18.87
2023-05-10T10:10:01.737Z,18.85
2023-05-10T10:12:28.550Z,18.58
2023-05-10T10:14:56.170Z,19.06
2023-05-10T10:17:22.590Z,18.93
2023-05-10T10:19:49.390Z,19.03
2023-05-10T10:22:15.890Z,18.26
2023-05-10T10:24:42.770Z,18.51
2023-05-10T10:27:24.609Z,18.73
2023-05-10T10:30:04.747Z,19.20
2023-05-10T10:32:38.563Z,19.56
2023-05-10T10:35:05.787Z,18.73
2023-05-10T10:37:47.076Z,18.08
2023-05-10T10:40:34.880Z,17.88
2023-05-10T10:43:22.557Z,18.39
2023-05-10T10:46:16.416Z,18.40
2023-05-10T10:48:48.825Z,18.65
2023-05-10T10:51:15.478Z,19.77
2023-05-10T10:53:42.585Z,19.72
2023-05-10T10:56:11.835Z,19.78
2023-05-10T10:58:39.647Z,19.36
2023-05-10T11:01:19.392Z,19.36
2023-05-10T11:04:01.019Z,19.86
2023-05-10T11:06:35.597Z,19.27
2023-05-10T11:09:13.195Z,19.77
2023-05-10T11:11:56.474Z,19.70
2023-05-10T11:14:23.493Z,19.52
2023-05-10T11:16:49.977Z,19.29
2023-05-10T11:19:18.352Z,18.84
2023-05-10T11:22:06.445Z,18.25
2023-05-10T11:24:35.113Z,16.71
2023-05-10T11:27:01.953Z,15.66
2023-05-10T11:29:28.343Z,15.44
2023-05-10T11:31:58.721Z,14.98
2023-05-10T11:34:27.067Z,14.38
2023-05-10T11:36:55.097Z,14.29
2023-05-10T11:39:23.018Z,14.26
2023-05-10T11:41:50.284Z,14.67
2023-05-10T11:44:17.085Z,14.73
2023-05-10T11:46:44.322Z,15.10
2023-05-10T11:49:11.577Z,15.43
2023-05-10T11:51:38.068Z,15.87
2023-05-10T11:54:11.848Z,16.10
2023-05-10T11:56:40.109Z,16.22
2023-05-10T11:59:06.717Z,16.60
2023-05-10T12:01:35.361Z,16.98
2023-05-10T12:04:02.509Z,16.76
2023-05-10T12:06:32.595Z,16.29
2023-05-10T12:08:59.760Z,15.85
2023-05-10T12:11:28.037Z,16.05
2023-05-10T12:13:55.372Z,16.11
2023-05-10T12:16:26.989Z,15.43
2023-05-10T12:18:56.917Z,15.08
2023-05-10T12:21:23.589Z,14.82
2023-05-10T12:23:55.467Z,14.76
2023-05-10T12:26:27.249Z,14.78
2023-05-10T12:28:54.654Z,14.77
2023-05-10T12:31:21.699Z,14.73
2023-05-10T12:33:50.158Z,15.10
2023-05-10T12:36:17.433Z,15.20
2023-05-10T12:38:47.292Z,15.54
2023-05-10T12:41:16.280Z,16.30
2023-05-10T12:43:43.230Z,16.26
2023-05-10T12:46:15.504Z,16.79
2023-05-10T12:48:43.367Z,16.75
2023-05-10T12:51:12.582Z,16.70
2023-05-10T12:53:41.524Z,16.85
2023-05-10T12:56:09.786Z,17.29
2023-05-10T12:58:36.434Z,16.99
2023-05-10T13:01:03.553Z,16.81
2023-05-10T13:03:30.086Z,16.89
2023-05-10T13:05:56.552Z,17.29
2023-05-10T13:08:23.381Z,16.77
2023-05-10T13:10:49.910Z,16.80
2023-05-10T13:13:16.452Z,16.90
2023-05-10T13:15:42.863Z,16.11
2023-05-10T13:18:09.292Z,14.87
2023-05-10T13:20:35.927Z,13.98
2023-05-10T13:23:03.967Z,13.76
2023-05-10T13:25:30.878Z,13.08
2023-05-10T13:27:57.230Z,12.60
2023-05-10T13:30:25.062Z,12.25
2023-05-10T13:32:51.517Z,12.25
2023-05-10T13:35:17.885Z,12.03
2023-05-10T13:37:44.710Z,11.84
2023-05-10T13:40:11.554Z,11.53
2023-05-10T13:42:38.485Z,11.60
2023-05-10T13:45:05.945Z,11.84
2023-05-10T13:47:32.383Z,11.47
2023-05-10T13:49:59.281Z,11.34
2023-05-10T13:52:25.775Z,11.31
2023-05-10T13:54:55.705Z,11.36
2023-05-10T13:57:22.375Z,11.54
2023-05-10T13:59:49.207Z,11.42
2023-05-10T14:02:15.577Z,11.17
2023-05-10T14:04:42.003Z,11.31
2023-05-10T14:07:08.577Z,11.55
2023-05-10T14:09:34.893Z,11.43
2023-05-10T14:12:01.248Z,11.43
2023-05-10T14:14:29.428Z,11.51
2023-05-10T14:16:55.900Z,11.30
2023-05-10T14:19:22.287Z,11.37
2023-05-10T14:21:48.776Z,11.37
2023-05-10T14:24:15.110Z,11.54
2023-05-10T14:26:41.414Z,11.62
2023-05-10T14:29:09.890Z,11.66
2023-05-10T14:31:37.042Z,11.68
2023-05-10T14:34:03.857Z,11.99
2023-05-10T14:36:30.545Z,12.11
2023-05-10T14:38:56.939Z,12.06
2023-05-10T14:41:23.857Z,12.04
2023-05-10T14:43:50.717Z,12.07
2023-05-10T14:46:17.281Z,12.29
2023-05-10T14:48:43.597Z,12.38
2023-05-10T14:51:10.421Z,12.27
2023-05-10T14:53:36.741Z,12.35
2023-05-10T14:56:03.877Z,12.50
2023-05-10T14:58:33.994Z,12.49
2023-05-10T15:01:00.803Z,12.62
2023-05-10T15:03:27.693Z,12.68
2023-05-10T15:05:55.126Z,12.71
2023-05-10T15:08:21.616Z,12.67
2023-05-10T15:10:48.538Z,12.69
2023-05-10T15:13:15.234Z,12.75
2023-05-10T15:15:41.625Z,11.51
2023-05-10T15:18:12.825Z,11.09
2023-05-10T15:20:39.701Z,11.28
2023-05-10T15:23:06.134Z,11.48
2023-05-10T15:25:35.176Z,11.47
2023-05-10T15:28:03.923Z,11.57
2023-05-10T15:30:30.397Z,11.46
2023-05-10T15:32:56.992Z,11.29
2023-05-10T15:35:24.268Z,11.67
2023-05-10T15:37:50.653Z,11.58
2023-05-10T15:40:17.266Z,11.65
2023-05-10T15:42:44.031Z,11.73
2023-05-10T15:45:11.726Z,11.79
2023-05-10T15:47:40.433Z,11.97
2023-05-10T15:50:09.257Z,12.17
2023-05-10T15:52:37.035Z,12.26
2023-05-10T15:55:04.053Z,12.26
2023-05-10T15:57:30.445Z,12.23
2023-05-10T15:59:56.765Z,12.01
2023-05-10T16:02:23.543Z,12.07
2023-05-10T16:04:50.166Z,12.23
2023-05-10T16:07:16.487Z,12.06
2023-05-10T16:09:43.038Z,11.92
2023-05-10T16:12:09.795Z,11.85
2023-05-10T16:14:36.173Z,11.59
2023-05-10T16:17:06.620Z,11.56
2023-05-10T16:19:33.644Z,11.54
2023-05-10T16:22:00.163Z,11.62
2023-05-10T16:24:26.569Z,11.50
2023-05-10T16:26:53.770Z,11.38
2023-05-10T16:29:20.129Z,11.23
2023-05-10T16:31:46.869Z,11.34
2023-05-10T16:34:13.951Z,11.31
2023-05-10T16:36:40.533Z,11.49
2023-05-10T16:39:09.704Z,11.34
2023-05-10T16:41:36.345Z,11.37
2023-05-10T16:44:03.606Z,11.01
2023-05-10T16:46:30.045Z,11.10
2023-05-10T16:48:56.844Z,11.17
2023-05-10T16:51:23.179Z,10.96
2023-05-10T16:53:49.847Z,11.00
2023-05-10T16:56:18.599Z,11.07
2023-05-10T16:58:46.369Z,10.96
2023-05-10T17:01:12.742Z,11.08
2023-05-10T17:03:39.389Z,11.14
2023-05-10T17:06:06.103Z,11.08
2023-05-10T17:08:32.944Z,11.07
2023-05-10T17:11:04.117Z,10.99
2023-05-10T17:13:30.967Z,11.17
2023-05-10T17:15:57.649Z,11.11
2023-05-10T17:18:24.456Z,11.11
2023-05-10T17:20:50.882Z,11.19
2023-05-10T17:23:17.287Z,11.13
2023-05-10T17:25:43.993Z,11.08
2023-05-10T17:28:10.620Z,11.10
2023-05-10T17:30:37.053Z,11.06
2023-05-10T17:33:04.158Z,11.07
2023-05-10T17:35:31.424Z,11.07
2023-05-10T17:37:58.140Z,10.93
2023-05-10T17:40:24.907Z,10.86
2023-05-10T17:42:51.998Z,10.95
2023-05-10T17:45:18.753Z,10.87
2023-05-10T17:47:45.880Z,10.88
2023-05-10T17:50:12.574Z,10.84
2023-05-10T17:52:38.916Z,10.81
2023-05-10T17:55:06.251Z,10.84
2023-05-10T17:57:33.142Z,10.76
2023-05-10T17:59:59.685Z,10.95
2023-05-10T18:02:26.409Z,10.96
2023-05-10T18:04:52.861Z,10.95
2023-05-10T18:07:20.179Z,10.99
2023-05-10T18:09:46.944Z,10.97
2023-05-10T18:12:13.478Z,10.92
2023-05-10T18:14:41.450Z,10.89
2023-05-10T18:17:08.593Z,10.96
2023-05-10T18:19:34.995Z,11.07
2023-05-10T18:22:01.817Z,11.03
2023-05-10T18:24:38.197Z,10.96
2023-05-10T18:27:05.851Z,10.98
2023-05-10T18:29:32.892Z,10.98
2023-05-10T18:31:59.269Z,10.95
2023-05-10T18:34:25.645Z,10.87
2023-05-10T18:36:53.062Z,10.88
2023-05-10T18:39:19.615Z,10.90
2023-05-10T18:41:46.235Z,10.97
2023-05-10T18:44:12.904Z,10.87
2023-05-10T18:46:39.441Z,10.93
2023-05-10T18:49:06.464Z,10.92
2023-05-10T18:51:33.525Z,10.83
2023-05-10T18:54:00.349Z,10.73
2023-05-10T18:56:26.727Z,10.76
2023-05-10T18:58:53.466Z,10.70
2023-05-10T19:01:19.842Z,10.67
2023-05-10T19:03:46.217Z,10.74
2023-05-10T19:06:12.955Z,10.74
2023-05-10T19:08:39.744Z,10.68
2023-05-10T19:11:06.080Z,10.65
2023-05-10T19:13:32.389Z,10.69
2023-05-10T19:16:14.990Z,10.72
2023-05-10T19:18:44.922Z,10.69
2023-05-10T19:21:11.390Z,10.67
2023-05-10T19:23:40.543Z,10.63
2023-05-10T19:26:08.746Z,10.61
2023-05-10T19:28:35.585Z,10.55
2023-05-10T19:31:02.824Z,10.59
2023-05-10T19:33:29.534Z,10.50
2023-05-10T19:35:56.173Z,10.43
2023-05-10T19:38:24.070Z,10.45
2023-05-10T19:40:57.411Z,10.46
2023-05-10T19:43:28.651Z,10.44
2023-05-10T19:45:58.283Z,10.50
2023-05-10T19:48:25.546Z,10.56
2023-05-10T19:50:59.614Z,10.53
2023-05-10T19:53:26.062Z,10.50
2023-05-10T19:55:52.688Z,10.50
2023-05-10T19:58:18.998Z,10.51
2023-05-10T20:00:45.493Z,10.49
2023-05-10T20:03:12.359Z,10.49
2023-05-10T20:05:38.704Z,10.45
2023-05-10T20:08:05.195Z,10.49
2023-05-10T20:10:31.971Z,10.45
2023-05-10T20:12:58.990Z,10.45
2023-05-10T20:15:25.323Z,10.48
2023-05-10T20:17:53.509Z,10.52
2023-05-10T20:20:21.027Z,10.65
2023-05-10T20:22:48.425Z,10.68
2023-05-10T20:25:16.492Z,10.73
2023-05-10T20:27:43.227Z,10.77
2023-05-10T20:30:10.329Z,10.83
2023-05-10T20:32:38.049Z,10.91
2023-05-10T20:35:05.706Z,10.90
2023-05-10T20:37:32.013Z,10.94
2023-05-10T20:39:58.379Z,11.01
2023-05-10T20:42:25.259Z,10.85
2023-05-10T20:44:51.804Z,10.80
2023-05-10T20:47:18.285Z,10.76
2023-05-10T20:49:44.945Z,10.85
2023-05-10T20:52:11.349Z,10.77
2023-05-10T20:54:37.716Z,10.81
2023-05-10T20:57:04.486Z,10.80
2023-05-10T20:59:30.863Z,10.65
2023-05-10T21:01:57.666Z,10.45
2023-05-10T21:04:25.381Z,10.46
2023-05-10T21:06:52.362Z,10.48
2023-05-10T21:09:18.730Z,10.41
2023-05-10T21:11:45.072Z,10.30
2023-05-10T21:14:11.975Z,10.38
2023-05-10T21:16:38.573Z,10.25
2023-05-10T21:19:07.058Z,10.25
2023-05-10T21:21:34.076Z,10.28
2023-05-10T21:24:00.594Z,10.27
2023-05-10T21:26:27.088Z,10.09
2023-05-10T21:28:53.861Z,10.00
2023-05-10T21:31:20.416Z,10.09
2023-05-10T21:33:46.901Z,10.04
2023-05-10T21:36:13.976Z,9.87
2023-05-10T21:38:40.983Z,9.94
2023-05-10T21:41:07.881Z,10.06
2023-05-10T21:43:34.234Z,10.00
2023-05-10T21:46:01.353Z,9.92
2023-05-10T21:48:27.739Z,9.92
2023-05-10T21:50:54.469Z,9.91
2023-05-10T21:53:20.796Z,9.83
2023-05-10T21:55:48.066Z,9.71
2023-05-10T21:58:14.923Z,9.70
2023-05-10T22:00:41.254Z,9.47
2023-05-10T22:03:07.879Z,9.51
2023-05-10T22:05:34.654Z,9.50
2023-05-10T22:08:01.013Z,9.50
2023-05-10T22:10:27.666Z,9.52
2023-05-10T22:12:54.590Z,9.54
2023-05-10T22:15:21.039Z,9.44
2023-05-10T22:17:47.481Z,9.49
2023-05-10T22:20:14.348Z,9.53
2023-05-10T22:22:40.848Z,9.55
2023-05-10T22:25:07.766Z,9.58
2023-05-10T22:27:34.805Z,9.62
2023-05-10T22:30:01.416Z,9.61
2023-05-10T22:32:27.991Z,9.41
2023-05-10T22:34:54.947Z,9.38
2023-05-10T22:37:21.294Z,9.37
2023-05-10T22:39:48.614Z,9.40
2023-05-10T22:42:15.602Z,9.36
2023-05-10T22:44:42.723Z,9.27
2023-05-10T22:47:09.356Z,9.31
2023-05-10T22:49:36.104Z,9.31
2023-05-10T22:52:02.464Z,9.36
2023-05-10T22:54:28.919Z,9.31
2023-05-10T22:56:56.827Z,9.30
2023-05-10T22:59:23.424Z,9.34
2023-05-10T23:01:50.003Z,9.24
2023-05-10T23:04:16.722Z,9.27
2023-05-10T23:06:43.106Z,9.25
2023-05-10T23:09:09.707Z,9.35
2023-05-10T23:11:36.519Z,9.29
2023-05-10T23:14:03.019Z,9.33
2023-05-10T23:16:29.909Z,9.18
2023-05-10T23:18:56.340Z,9.20
2023-05-10T23:21:23.345Z,9.26
2023-05-10T23:23:50.080Z,9.25
2023-05-10T23:26:16.423Z,9.30
2023-05-10T23:28:42.815Z,9.33
2023-05-10T23:31:09.203Z,9.28
2023-05-10T23:33:35.555Z,9.25
2023-05-10T23:36:02.303Z,9.39
2023-05-10T23:38:28.694Z,9.29
2023-05-10T23:40:55.021Z,9.31
2023-05-10T23:43:22.019Z,9.28
2023-05-10T23:45:58.425Z,9.30
2023-05-10T23:48:25.697Z,9.46
2023-05-10T23:50:52.143Z,9.37
2023-05-10T23:53:18.878Z,9.34
2023-05-10T23:55:47.002Z,9.33
2023-05-10T23:58:13.420Z,9.33
